createdAt,value
2023-05-04T00:01:23.731Z,98619.00
2023-05-04T00:03:53.641Z,98629.00
2023-05-04T00:06:23.058Z,98631.00
2023-05-04T00:08:52.324Z,98631.00
2023-05-04T00:11:21.658Z,98632.00
2023-05-04T00:13:50.937Z,98642.00
2023-05-04T00:16:20.392Z,98642.00
2023-05-04T00:18:49.674Z,98651.00
2023-05-04T00:21:19.037Z,98647.00
2023-05-04T00:23:48.352Z,98653.00
2023-05-04T00:26:17.603Z,98648.00
2023-05-04T00:28:46.897Z,98647.00
2023-05-04T00:31:16.282Z,98654.00
2023-05-04T00:33:45.632Z,98658.00
2023-05-04T00:36:15.234Z,98665.00
2023-05-04T00:38:55.780Z,98675.00
2023-05-04T00:41:25.297Z,98675.00
2023-05-04T00:43:54.651Z,98673.00
2023-05-04T00:46:24.665Z,98671.00
2023-05-04T00:48:55.041Z,98669.00
2023-05-04T00:51:27.483Z,98686.00
2023-05-04T00:53:57.690Z,98678.00
2023-05-04T00:56:29.952Z,98685.00
2023-05-04T00:58:59.760Z,98677.00
2023-05-04T01:01:29.086Z,98682.00
2023-05-04T01:03:59.018Z,98689.00
2023-05-04T01:07:07.416Z,98684.00
2023-05-04T01:10:10.546Z,98676.00
2023-05-04T01:13:09.765Z,98685.00
2023-05-04T01:15:40.252Z,98681.00
2023-05-04T01:18:10.090Z,98682.00
2023-05-04T01:20:39.416Z,98684.00
2023-05-04T01:23:08.817Z,98684.00
2023-05-04T01:25:56.748Z,98687.00
2023-05-04T01:28:58.192Z,98685.00
2023-05-04T01:31:29.609Z,98680.00
2023-05-04T01:34:17.017Z,98681.00
2023-05-04T01:36:52.753Z,98690.00
2023-05-04T01:39:25.498Z,98687.00
2023-05-04T01:41:58.095Z,98686.00
2023-05-04T01:44:35.606Z,98689.00
2023-05-04T01:47:07.252Z,98692.00
2023-05-04T01:49:41.754Z,98687.00
2023-05-04T01:52:12.732Z,98684.00
2023-05-04T01:54:45.328Z,98689.00
2023-05-04T01:57:14.607Z,98684.00
2023-05-04T01:59:44.029Z,98691.00
2023-05-04T02:02:25.415Z,98683.00
2023-05-04T02:04:59.450Z,98685.00
2023-05-04T02:07:28.734Z,98680.00
2023-05-04T02:10:00.949Z,98676.00
2023-05-04T02:12:35.182Z,98674.00
2023-05-04T02:15:09.048Z,98671.00
2023-05-04T02:17:41.260Z,98676.00
2023-05-04T02:20:11.678Z,98675.00
2023-05-04T02:22:49.246Z,98670.00
2023-05-04T02:25:18.889Z,98675.00
2023-05-04T02:27:50.473Z,98665.00
2023-05-04T02:30:19.795Z,98669.00
2023-05-04T02:32:49.166Z,98662.00
2023-05-04T02:35:18.893Z,98675.00
2023-05-04T02:37:48.265Z,98661.00
2023-05-04T02:40:17.686Z,98654.00
2023-05-04T02:42:47.059Z,98658.00
2023-05-04T02:45:16.581Z,98659.00
2023-05-04T02:47:46.134Z,98658.00
2023-05-04T02:50:15.748Z,98651.00
2023-05-04T02:52:45.027Z,98650.00
2023-05-04T02:55:14.369Z,98656.00
2023-05-04T02:57:43.587Z,98649.00
2023-05-04T03:00:13.462Z,98646.00
2023-05-04T03:02:42.782Z,98639.00
2023-05-04T03:05:12.310Z,98636.00
2023-05-04T03:07:42.096Z,98640.00
2023-05-04T03:10:12.439Z,98637.00
2023-05-04T03:12:41.958Z,98634.00
2023-05-04T03:15:11.567Z,98634.00
2023-05-04T03:17:41.058Z,98635.00
2023-05-04T03:20:11.710Z,98635.00
2023-05-04T03:22:41.000Z,98630.00
2023-05-04T03:25:10.724Z,98631.00
2023-05-04T03:27:40.009Z,98627.00
2023-05-04T03:30:10.105Z,98623.00
2023-05-04T03:32:39.364Z,98619.00
2023-05-04T03:35:10.265Z,98615.00
2023-05-04T03:37:39.468Z,98615.00
2023-05-04T03:40:09.766Z,98608.00
2023-05-04T03:42:39.135Z,98601.00
2023-05-04T03:45:09.190Z,98598.00
2023-05-04T03:47:38.426Z,98599.00
2023-05-04T03:50:08.355Z,98603.00
2023-05-04T03:52:37.663Z,98593.00
2023-05-04T03:55:08.026Z,98583.00
2023-05-04T03:57:37.720Z,98580.00
2023-05-04T04:00:07.842Z,98577.00
2023-05-04T04:02:37.159Z,98572.00
2023-05-04T04:05:07.494Z,98565.00
2023-05-04T04:07:36.733Z,98568.00
2023-05-04T04:10:06.382Z,98563.00
2023-05-04T04:12:35.782Z,98557.00
2023-05-04T04:15:05.317Z,98559.00
2023-05-04T04:17:34.499Z,98548.00
2023-05-04T04:20:03.906Z,98555.00
2023-05-04T04:22:33.356Z,98558.00
2023-05-04T04:25:02.633Z,98562.00
2023-05-04T04:27:32.085Z,98552.00
2023-05-04T04:30:01.620Z,98549.00
2023-05-04T04:32:30.856Z,98550.00
2023-05-04T04:35:00.025Z,98545.00
2023-05-04T04:37:30.031Z,98543.00
2023-05-04T04:39:59.328Z,98541.00
2023-05-04T04:42:28.631Z,98538.00
2023-05-04T04:44:58.149Z,98527.00
2023-05-04T04:47:27.821Z,98526.00
2023-05-04T04:49:57.287Z,98531.00
2023-05-04T04:52:27.041Z,98527.00
2023-05-04T04:54:56.296Z,98519.00
2023-05-04T04:57:25.572Z,98509.00
2023-05-04T04:59:54.795Z,98497.00
2023-05-04T05:02:24.386Z,98492.00
2023-05-04T05:04:53.714Z,98492.00
2023-05-04T05:07:23.173Z,98489.00
2023-05-04T05:09:52.757Z,98493.00
2023-05-04T05:12:22.214Z,98484.00
2023-05-04T05:14:51.798Z,98474.00
2023-05-04T05:17:22.445Z,98483.00
2023-05-04T05:19:51.730Z,98473.00
2023-05-04T05:22:21.075Z,98477.00
2023-05-04T05:24:50.370Z,98467.00
2023-05-04T05:27:19.613Z,98455.00
2023-05-04T05:29:48.822Z,98449.00
2023-05-04T05:32:18.092Z,98443.00
2023-05-04T05:34:47.330Z,98438.00
2023-05-04T05:37:16.971Z,98439.00
2023-05-04T05:39:46.346Z,98430.00
2023-05-04T05:42:15.607Z,98435.00
2023-05-04T05:44:44.894Z,98428.00
2023-05-04T05:47:14.332Z,98440.00
2023-05-04T05:49:46.137Z,98436.00
2023-05-04T05:52:15.790Z,98420.00
2023-05-04T05:54:45.003Z,98424.00
2023-05-04T05:57:14.249Z,98408.00
2023-05-04T05:59:45.645Z,98405.00
2023-05-04T06:02:15.748Z,98405.00
2023-05-04T06:04:48.822Z,98406.00
2023-05-04T06:07:18.763Z,98404.00
2023-05-04T06:09:48.018Z,98394.00
2023-05-04T06:12:18.308Z,98391.00
2023-05-04T06:14:48.875Z,98379.00
2023-05-04T06:17:19.643Z,98382.00
2023-05-04T06:19:50.823Z,98362.00
2023-05-04T06:22:20.362Z,98370.00
2023-05-04T06:24:49.608Z,98368.00
2023-05-04T06:27:18.984Z,98366.00
2023-05-04T06:29:48.305Z,98349.00
2023-05-04T06:32:17.626Z,98344.00
2023-05-04T06:34:46.954Z,98338.00
2023-05-04T06:37:16.305Z,98330.00
2023-05-04T06:39:45.536Z,98320.00
2023-05-04T06:42:14.806Z,98308.00
2023-05-04T06:44:44.093Z,98316.00
2023-05-04T06:47:13.458Z,98304.00
2023-05-04T06:49:42.884Z,98297.00
2023-05-04T06:52:12.616Z,98310.00
2023-05-04T06:54:42.010Z,98302.00
2023-05-04T06:57:12.403Z,98281.00
2023-05-04T06:59:42.103Z,98280.00
2023-05-04T07:02:11.400Z,98286.00
2023-05-04T07:04:40.645Z,98279.00
2023-05-04T07:07:10.063Z,98278.00
2023-05-04T07:09:39.720Z,98278.00
2023-05-04T07:12:09.246Z,98269.00
2023-05-04T07:14:38.445Z,98279.00
2023-05-04T07:17:07.744Z,98265.00
2023-05-04T07:19:37.886Z,98264.00
2023-05-04T07:22:07.445Z,98257.00
2023-05-04T07:24:36.724Z,98251.00
2023-05-04T07:27:06.028Z,98247.00
2023-05-04T07:29:35.515Z,98260.00
2023-05-04T07:32:04.849Z,98255.00
2023-05-04T07:34:44.965Z,98243.00
2023-05-04T07:37:17.066Z,98253.00
2023-05-04T07:39:46.667Z,98241.00
2023-05-04T07:42:15.956Z,98227.00
2023-05-04T07:44:45.159Z,98227.00
2023-05-04T07:47:14.490Z,98223.00
2023-05-04T07:49:43.795Z,98222.00
2023-05-04T07:52:13.413Z,98216.00
2023-05-04T07:54:42.825Z,98218.00
2023-05-04T07:57:12.183Z,98206.00
2023-05-04T07:59:41.474Z,98202.00
2023-05-04T08:02:11.224Z,98195.00
2023-05-04T08:04:40.590Z,98195.00
2023-05-04T08:07:09.793Z,98191.00
2023-05-04T08:09:39.060Z,98183.00
2023-05-04T08:12:08.609Z,98185.00
2023-05-04T08:14:39.201Z,98177.00
2023-05-04T08:17:08.666Z,98167.00
2023-05-04T08:19:38.039Z,98163.00
2023-05-04T08:22:13.741Z,98161.00
2023-05-04T08:24:42.978Z,98163.00
2023-05-04T08:27:18.380Z,98170.00
2023-05-04T08:29:47.729Z,98159.00
2023-05-04T08:32:16.993Z,98158.00
2023-05-04T08:34:46.434Z,98156.00
2023-05-04T08:37:16.806Z,98154.00
2023-05-04T08:39:46.092Z,98150.00
2023-05-04T08:42:15.523Z,98146.00
2023-05-04T08:44:44.812Z,98143.00
2023-05-04T08:47:14.095Z,98145.00
2023-05-04T08:49:43.367Z,98146.00
2023-05-04T08:52:14.662Z,98141.00
2023-05-04T08:54:44.998Z,98136.00
2023-05-04T08:57:15.723Z,98128.00
2023-05-04T08:59:50.256Z,98129.00
2023-05-04T09:02:23.545Z,98129.00
2023-05-04T09:04:56.411Z,98121.00
2023-05-04T09:07:25.754Z,98120.00
2023-05-04T09:09:55.991Z,98128.00
2023-05-04T09:12:28.836Z,98126.00
2023-05-04T09:14:59.343Z,98118.00
2023-05-04T09:17:30.359Z,98122.00
2023-05-04T09:20:04.881Z,98112.00
2023-05-04T09:22:34.562Z,98117.00
2023-05-04T09:25:12.330Z,98114.00
2023-05-04T09:27:43.627Z,98114.00
2023-05-04T09:30:15.153Z,98118.00
2023-05-04T09:32:49.604Z,98112.00
2023-05-04T09:35:32.025Z,98104.00
2023-05-04T09:38:02.879Z,98101.00
2023-05-04T09:40:43.928Z,98101.00
2023-05-04T09:43:14.395Z,98101.00
2023-05-04T09:45:50.101Z,98102.00
2023-05-04T09:48:29.957Z,98101.00
2023-05-04T09:51:01.820Z,98101.00
2023-05-04T09:53:32.593Z,98100.00
2023-05-04T09:56:33.525Z,98104.00
2023-05-04T09:59:03.679Z,98105.00
2023-05-04T10:01:33.631Z,98097.00
2023-05-04T10:04:04.907Z,98101.00
2023-05-04T10:06:35.850Z,98100.00
2023-05-04T10:09:05.069Z,98100.00
2023-05-04T10:11:35.347Z,98092.00
2023-05-04T10:14:04.806Z,98083.00
2023-05-04T10:17:02.093Z,98078.00
2023-05-04T10:19:58.633Z,98089.00
2023-05-04T10:22:54.616Z,98091.00
2023-05-04T10:25:38.157Z,98093.00
2023-05-04T10:28:36.766Z,98094.00
2023-05-04T10:31:07.754Z,98093.00
2023-05-04T10:33:42.108Z,98096.00
2023-05-04T10:36:13.284Z,98102.00
2023-05-04T10:38:43.383Z,98098.00
2023-05-04T10:41:22.981Z,98093.00
2023-05-04T10:43:54.433Z,98097.00
2023-05-04T10:46:25.470Z,98089.00
2023-05-04T10:48:54.824Z,98091.00
2023-05-04T10:51:32.614Z,98097.00
2023-05-04T10:54:06.111Z,98099.00
2023-05-04T10:56:35.447Z,98105.00
2023-05-04T10:59:11.671Z,98111.00
2023-05-04T11:01:46.879Z,98114.00
2023-05-04T11:04:25.713Z,98123.00
2023-05-04T11:07:06.237Z,98126.00
2023-05-04T11:09:48.182Z,98126.00
2023-05-04T11:12:17.628Z,98122.00
2023-05-04T11:14:47.069Z,98123.00
2023-05-04T11:19:54.470Z,98131.00
2023-05-04T11:22:24.134Z,98136.00
2023-05-04T11:24:54.334Z,98140.00
2023-05-04T11:27:28.694Z,98134.00
2023-05-04T11:30:06.813Z,98137.00
2023-05-04T11:32:51.275Z,98137.00
2023-05-04T11:35:28.661Z,98151.00
2023-05-04T11:37:58.739Z,98152.00
2023-05-04T11:40:29.160Z,98158.00
2023-05-04T11:43:06.667Z,98161.00
2023-05-04T11:45:39.560Z,98169.00
2023-05-04T11:48:13.566Z,98176.00
2023-05-04T11:50:43.042Z,98185.00
2023-05-04T11:53:14.835Z,98188.00
2023-05-04T11:55:44.076Z,98186.00
2023-05-04T11:58:13.829Z,98191.00
2023-05-04T12:00:48.070Z,98192.00
2023-05-04T12:03:32.551Z,98186.00
2023-05-04T12:06:09.402Z,98183.00
2023-05-04T12:08:43.068Z,98188.00
2023-05-04T12:11:26.538Z,98186.00
2023-05-04T12:14:11.051Z,98188.00
2023-05-04T12:16:43.849Z,98190.00
2023-05-04T12:19:14.030Z,98186.00
2023-05-04T12:21:59.367Z,98196.00
2023-05-04T12:24:29.902Z,98188.00
2023-05-04T12:26:59.178Z,98196.00
2023-05-04T12:29:28.333Z,98193.00
2023-05-04T12:31:57.804Z,98191.00
2023-05-04T12:34:27.072Z,98187.00
2023-05-04T12:36:57.036Z,98196.00
2023-05-04T12:39:26.560Z,98194.00
2023-05-04T12:41:55.743Z,98193.00
2023-05-04T12:44:25.942Z,98196.00
2023-05-04T12:46:56.629Z,98201.00
2023-05-04T12:49:26.052Z,98204.00
2023-05-04T12:51:55.206Z,98211.00
2023-05-04T12:54:24.508Z,98212.00
2023-05-04T12:56:54.375Z,98225.00
2023-05-04T12:59:24.517Z,98222.00
2023-05-04T13:01:53.855Z,98224.00
2023-05-04T13:04:23.059Z,98223.00
2023-05-04T13:06:52.900Z,98219.00
2023-05-04T13:09:22.074Z,98226.00
2023-05-04T13:11:51.219Z,98226.00
2023-05-04T13:14:20.417Z,98232.00
2023-05-04T13:16:51.031Z,98240.00
2023-05-04T13:19:20.418Z,98234.00
2023-05-04T13:21:49.759Z,98237.00
2023-05-04T13:24:18.915Z,98239.00
2023-05-04T13:26:48.197Z,98239.00
2023-05-04T13:29:17.432Z,98240.00
2023-05-04T13:31:46.762Z,98242.00
2023-05-04T13:37:01.718Z,98244.00
2023-05-04T13:39:31.038Z,98242.00
2023-05-04T13:42:00.423Z,98247.00
2023-05-04T13:44:29.689Z,98249.00
2023-05-04T13:46:59.150Z,98254.00
2023-05-04T13:49:28.498Z,98252.00
2023-05-04T13:51:59.748Z,98262.00
2023-05-04T13:54:29.807Z,98265.00
2023-05-04T13:56:59.762Z,98274.00
2023-05-04T13:59:30.180Z,98278.00
2023-05-04T14:01:59.458Z,98278.00
2023-05-04T14:04:28.721Z,98273.00
2023-05-04T14:06:58.658Z,98275.00
2023-05-04T14:09:28.091Z,98275.00
2023-05-04T14:11:57.346Z,98292.00
2023-05-04T14:14:26.697Z,98289.00
2023-05-04T14:16:56.066Z,98286.00
2023-05-04T14:19:27.293Z,98282.00
2023-05-04T14:21:56.837Z,98288.00
2023-05-04T14:24:27.237Z,98281.00
2023-05-04T14:26:56.685Z,98289.00
2023-05-04T14:29:26.082Z,98292.00
2023-05-04T14:31:55.922Z,98297.00
2023-05-04T14:34:27.619Z,98292.00
2023-05-04T14:36:57.798Z,98293.00
2023-05-04T14:39:27.151Z,98291.00
2023-05-04T14:41:58.160Z,98296.00
2023-05-04T14:44:30.706Z,98293.00
2023-05-04T14:47:00.173Z,98292.00
2023-05-04T14:52:04.785Z,98285.00
2023-05-04T14:54:34.076Z,98282.00
2023-05-04T14:57:03.897Z,98285.00
2023-05-04T14:59:33.256Z,98273.00
2023-05-04T15:02:04.015Z,98273.00
2023-05-04T15:04:35.959Z,98283.00
2023-05-04T15:09:52.770Z,98284.00
2023-05-04T15:12:22.445Z,98281.00
2023-05-04T15:14:51.994Z,98282.00
2023-05-04T15:17:21.361Z,98285.00
2023-05-04T15:19:50.748Z,98283.00
2023-05-04T15:22:20.061Z,98284.00
2023-05-04T15:24:49.371Z,98281.00
2023-05-04T15:27:19.664Z,98278.00
2023-05-04T15:29:49.614Z,98270.00
2023-05-04T15:32:19.008Z,98275.00
2023-05-04T15:35:01.131Z,98280.00
2023-05-04T15:37:37.181Z,98281.00
2023-05-04T15:40:07.697Z,98281.00
2023-05-04T15:42:37.342Z,98284.00
2023-05-04T15:45:08.738Z,98284.00
2023-05-04T15:47:43.649Z,98279.00
2023-05-04T15:50:13.581Z,98280.00
2023-05-04T15:52:42.887Z,98268.00
2023-05-04T15:55:24.634Z,98269.00
2023-05-04T15:57:55.219Z,98269.00
2023-05-04T16:00:24.882Z,98267.00
2023-05-04T16:02:54.255Z,98260.00
2023-05-04T16:05:25.436Z,98253.00
2023-05-04T16:07:55.428Z,98252.00
2023-05-04T16:10:25.205Z,98255.00
2023-05-04T16:12:54.524Z,98257.00
2023-05-04T16:15:23.793Z,98256.00
2023-05-04T16:17:53.137Z,98261.00
2023-05-04T16:20:22.472Z,98255.00
2023-05-04T16:22:51.833Z,98258.00
2023-05-04T16:25:21.537Z,98259.00
2023-05-04T16:27:50.946Z,98248.00
2023-05-04T16:30:21.856Z,98252.00
2023-05-04T16:32:51.143Z,98251.00
2023-05-04T16:35:21.505Z,98248.00
2023-05-04T16:37:50.669Z,98252.00
2023-05-04T16:40:20.370Z,98247.00
2023-05-04T16:42:52.822Z,98247.00
2023-05-04T16:45:25.646Z,98248.00
2023-05-04T16:47:55.014Z,98240.00
2023-05-04T16:50:24.471Z,98239.00
2023-05-04T16:52:53.719Z,98243.00
2023-05-04T16:55:23.595Z,98240.00
2023-05-04T16:57:52.849Z,98228.00
2023-05-04T17:00:22.776Z,98221.00
2023-05-04T17:02:53.633Z,98225.00
2023-05-04T17:05:23.250Z,98221.00
2023-05-04T17:07:52.632Z,98218.00
2023-05-04T17:10:22.082Z,98210.00
2023-05-04T17:12:55.893Z,98211.00
2023-05-04T17:15:25.902Z,98205.00
2023-05-04T17:17:56.739Z,98202.00
2023-05-04T17:20:29.682Z,98203.00
2023-05-04T17:23:02.154Z,98202.00
2023-05-04T17:25:31.604Z,98194.00
2023-05-04T17:28:00.837Z,98195.00
2023-05-04T17:30:30.485Z,98192.00
2023-05-04T17:32:59.829Z,98195.00
2023-05-04T17:35:30.306Z,98195.00
2023-05-04T17:37:59.654Z,98195.00
2023-05-04T17:40:29.773Z,98191.00
2023-05-04T17:42:59.217Z,98187.00
2023-05-04T17:45:28.441Z,98187.00
2023-05-04T17:47:58.233Z,98189.00
2023-05-04T17:50:28.641Z,98186.00
2023-05-04T17:52:58.847Z,98180.00
2023-05-04T17:55:28.725Z,98177.00
2023-05-04T17:57:57.919Z,98174.00
2023-05-04T18:00:27.097Z,98177.00
2023-05-04T18:02:56.479Z,98167.00
2023-05-04T18:05:26.738Z,98163.00
2023-05-04T18:07:55.952Z,98164.00
2023-05-04T18:10:28.952Z,98168.00
2023-05-04T18:13:01.324Z,98158.00
2023-05-04T18:15:30.611Z,98156.00
2023-05-04T18:18:00.328Z,98164.00
2023-05-04T18:20:29.735Z,98147.00
2023-05-04T18:22:59.007Z,98145.00
2023-05-04T18:25:28.467Z,98143.00
2023-05-04T18:27:57.917Z,98147.00
2023-05-04T18:30:27.741Z,98138.00
2023-05-04T18:32:57.201Z,98145.00
2023-05-04T18:35:27.314Z,98143.00
2023-05-04T18:37:56.577Z,98147.00
2023-05-04T18:40:30.032Z,98152.00
2023-05-04T18:42:59.445Z,98142.00
2023-05-04T18:45:28.925Z,98136.00
2023-05-04T18:47:58.373Z,98138.00
2023-05-04T18:50:27.865Z,98137.00
2023-05-04T18:52:57.153Z,98128.00
2023-05-04T18:55:28.206Z,98121.00
2023-05-04T18:58:02.034Z,98128.00
2023-05-04T19:00:31.456Z,98126.00
2023-05-04T19:03:00.745Z,98118.00
2023-05-04T19:05:31.183Z,98119.00
2023-05-04T19:08:00.534Z,98123.00
2023-05-04T19:10:29.943Z,98127.00
2023-05-04T19:13:00.412Z,98124.00
2023-05-04T19:15:30.058Z,98118.00
2023-05-04T19:17:59.381Z,98121.00
2023-05-04T19:20:28.975Z,98124.00
2023-05-04T19:22:58.845Z,98116.00
2023-05-04T19:28:03.723Z,98110.00
2023-05-04T19:30:33.010Z,98108.00
2023-05-04T19:33:02.470Z,98107.00
2023-05-04T19:35:32.838Z,98100.00
2023-05-04T19:38:07.184Z,98102.00
2023-05-04T19:40:36.820Z,98099.00
2023-05-04T19:43:06.607Z,98097.00
2023-05-04T19:45:35.927Z,98099.00
2023-05-04T19:48:06.345Z,98087.00
2023-05-04T19:50:35.590Z,98090.00
2023-05-04T19:53:05.120Z,98087.00
2023-05-04T19:55:34.458Z,98079.00
2023-05-04T19:58:03.683Z,98080.00
2023-05-04T20:00:35.763Z,98085.00
2023-05-04T20:03:07.420Z,98078.00
2023-05-04T20:05:37.028Z,98084.00
2023-05-04T20:08:06.313Z,98084.00
2023-05-04T20:10:35.569Z,98079.00
2023-05-04T20:13:04.800Z,98082.00
2023-05-04T20:15:34.021Z,98084.00
2023-05-04T20:18:03.342Z,98080.00
2023-05-04T20:20:32.591Z,98082.00
2023-05-04T20:23:01.836Z,98080.00
2023-05-04T20:25:31.219Z,98086.00
2023-05-04T20:28:00.538Z,98077.00
2023-05-04T20:30:29.757Z,98088.00
2023-05-04T20:32:58.974Z,98076.00
2023-05-04T20:35:28.203Z,98077.00
2023-05-04T20:37:57.396Z,98078.00
2023-05-04T20:40:26.805Z,98074.00
2023-05-04T20:42:56.042Z,98080.00
2023-05-04T20:45:25.284Z,98084.00
2023-05-04T20:47:54.636Z,98081.00
2023-05-04T20:50:24.300Z,98080.00
2023-05-04T20:52:53.475Z,98090.00
2023-05-04T20:55:25.483Z,98091.00
2023-05-04T20:57:55.043Z,98094.00
2023-05-04T21:00:25.800Z,98096.00
2023-05-04T21:02:55.678Z,98091.00
2023-05-04T21:05:25.048Z,98094.00
2023-05-04T21:07:54.479Z,98096.00
2023-05-04T21:10:24.112Z,98100.00
2023-05-04T21:12:53.377Z,98101.00
2023-05-04T21:15:22.750Z,98100.00
2023-05-04T21:17:52.231Z,98096.00
2023-05-04T21:20:22.112Z,98098.00
2023-05-04T21:22:51.470Z,98104.00
2023-05-04T21:25:20.745Z,98104.00
2023-05-04T21:27:50.004Z,98108.00
2023-05-04T21:30:19.434Z,98104.00
2023-05-04T21:32:48.797Z,98115.00
2023-05-04T21:35:21.996Z,98103.00
2023-05-04T21:37:52.048Z,98107.00
2023-05-04T21:40:21.446Z,98114.00
2023-05-04T21:42:50.769Z,98117.00
2023-05-04T21:45:20.085Z,98115.00
2023-05-04T21:47:49.571Z,98122.00
2023-05-04T21:50:19.342Z,98117.00
2023-05-04T21:52:48.578Z,98121.00
2023-05-04T21:55:20.951Z,98125.00
2023-05-04T21:57:50.862Z,98115.00
2023-05-04T22:00:20.573Z,98120.00
2023-05-04T22:02:49.975Z,98122.00
2023-05-04T22:05:23.004Z,98140.00
2023-05-04T22:07:52.529Z,98137.00
2023-05-04T22:10:21.933Z,98137.00
2023-05-04T22:12:51.221Z,98142.00
2023-05-04T22:15:20.608Z,98146.00
2023-05-04T22:17:49.957Z,98142.00
2023-05-04T22:20:19.426Z,98151.00
2023-05-04T22:22:48.749Z,98156.00
2023-05-04T22:25:18.048Z,98156.00
2023-05-04T22:27:47.321Z,98162.00
2023-05-04T22:30:18.308Z,98160.00
2023-05-04T22:32:47.588Z,98163.00
2023-05-04T22:35:16.910Z,98173.00
2023-05-04T22:37:48.163Z,98164.00
2023-05-04T22:40:18.076Z,98171.00
2023-05-04T22:42:47.571Z,98176.00
2023-05-04T22:45:19.092Z,98178.00
2023-05-04T22:47:48.519Z,98182.00
2023-05-04T22:50:18.452Z,98189.00
2023-05-04T22:52:47.702Z,98186.00
2023-05-04T22:55:17.245Z,98187.00
2023-05-04T22:57:46.561Z,98185.00
2023-05-04T23:00:16.649Z,98189.00
2023-05-04T23:02:46.001Z,98193.00
2023-05-04T23:05:15.656Z,98201.00
2023-05-04T23:10:27.760Z,98212.00
2023-05-04T23:12:57.270Z,98216.00
2023-05-04T23:15:27.538Z,98216.00
2023-05-04T23:17:56.841Z,98229.00
2023-05-04T23:20:26.192Z,98226.00
2023-05-04T23:22:55.478Z,98226.00
2023-05-04T23:25:24.930Z,98229.00
2023-05-04T23:27:54.164Z,98234.00
2023-05-04T23:30:23.486Z,98233.00
2023-05-04T23:32:52.953Z,98237.00
2023-05-04T23:35:22.336Z,98239.00
2023-05-04T23:37:51.710Z,98238.00
2023-05-04T23:40:21.825Z,98249.00
2023-05-04T23:42:51.860Z,98246.00
2023-05-04T23:45:21.324Z,98242.00
2023-05-04T23:47:50.888Z,98244.00
2023-05-04T23:50:20.519Z,98244.00
2023-05-04T23:52:49.749Z,98250.00
2023-05-04T23:55:19.287Z,98253.00
2023-05-04T23:57:48.597Z,98256.00
